KMKG/MKG METAR and TAF weather

Enter ICAO airport designator
Station Type Date Time Source
KMKG METAR 2019/04/21 21:55 UTC NOAA

KMKG 212155Z 19012KT 10SM FEW140 BKN250 21/M05 A3002 RMK AO2 SLP165 T02061050


Station Type Date Time Source
KMKG Decoded METAR 2019/04/21 21:55 UTC NOAA

MUSKEGON COUNTY AIRPORT, MI, United States (KMKG) 43-10N 086-14W 191M
Apr 21, 2019 - 05:55 PM EDT / 2019.04.21 2155 UTC
Wind: from the S (190 degrees) at 14 MPH (12 KT):0
Visibility: 10 mile(s):0
Sky conditions: mostly cloudy
Temperature: 69.1 F (20.6 C)
Dew Point: 23.0 F (-5.0 C)
Relative Humidity: 17%
Pressure (altimeter): 30.02 in. Hg (1016 hPa)
ob: KMKG 212155Z 19012KT 10SM FEW140 BKN250 21/M05 A3002 RMK AO2 SLP165 T02061050
cycle: 22

Station Type Date Time Source
KMKG TAF 2019/04/21 18:22 UTC NOAA

TAF KMKG 211720Z 2118/2218 19008KT P6SM SCT150
FM220000 16006KT P6SM SCT200
FM221300 17010G19KT P6SM SCT200

Example: see airport list